Time;durP1;ratioP1;P1;durP2;ratioP2;P2;SDS_P1;SDS_P2;PMS_P1;PMS_P2;Temp;Humidity;BMP_temperature;BMP_pressure;BME280_temperature;BME280_humidity;BME280_pressure;Samples;Min_cycle;Max_cycle;Signal;HPM_P1;HPM_P2
2023/12/22 00:01:35;;;;;;;0.10;0.10;;;6.00;99.90;;;;;;5020834;28;20321;-57
2023/12/22 00:04:06;;;;;;;1.25;0.15;;;5.90;99.90;;;;;;5032303;28;20699;-56
2023/12/22 00:06:34;;;;;;;0.10;0.00;;;5.90;99.90;;;;;;5032215;28;20620;-57
2023/12/22 00:09:02;;;;;;;1.55;0.10;;;5.90;99.90;;;;;;5024125;28;20699;-55
2023/12/22 00:11:30;;;;;;;0.30;0.20;;;5.90;99.90;;;;;;5026064;28;20306;-56
2023/12/22 00:13:58;;;;;;;0.32;0.20;;;5.90;99.90;;;;;;5020391;28;20700;-55
2023/12/22 00:16:26;;;;;;;1.95;0.10;;;5.80;99.90;;;;;;5031950;28;20206;-56
2023/12/22 00:18:54;;;;;;;0.22;0.10;;;5.80;99.90;;;;;;5032123;28;20202;-56
2023/12/22 00:21:23;;;;;;;0.35;0.00;;;5.80;99.90;;;;;;5032020;28;20707;-56
2023/12/22 00:23:51;;;;;;;0.10;0.10;;;5.80;99.90;;;;;;5032409;28;20619;-57
2023/12/22 00:26:19;;;;;;;0.47;0.13;;;5.80;99.90;;;;;;5025573;28;20207;-57
2023/12/22 00:28:47;;;;;;;0.10;0.10;;;5.80;99.90;;;;;;5021438;28;20241;-56
2023/12/22 00:31:15;;;;;;;1.38;0.10;;;5.80;99.90;;;;;;5031969;28;20291;-56
2023/12/22 00:33:43;;;;;;;0.40;0.20;;;5.80;99.90;;;;;;5031785;28;20227;-55
2023/12/22 00:36:11;;;;;;;0.10;0.10;;;5.80;99.90;;;;;;5031892;28;20207;-57
2023/12/22 00:38:40;;;;;;;0.60;0.20;;;5.80;99.90;;;;;;5031320;28;20734;-56
2023/12/22 00:41:08;;;;;;;0.50;0.20;;;5.80;99.90;;;;;;5019325;28;20309;-55
2023/12/22 00:43:36;;;;;;;1.85;0.38;;;5.80;99.90;;;;;;5020360;28;20202;-59
2023/12/22 00:46:04;;;;;;;1.45;0.13;;;5.80;99.90;;;;;;5023803;28;20660;-57
2023/12/22 00:48:32;;;;;;;0.80;0.20;;;5.80;99.90;;;;;;5031527;28;20302;-57
2023/12/22 00:51:00;;;;;;;1.13;0.30;;;5.80;99.90;;;;;;5031342;28;20794;-55
2023/12/22 00:53:27;;;;;;;0.00;0.00;;;5.90;99.90;;;;;;5031220;28;20636;-59
2023/12/22 00:55:57;;;;;;;0.45;0.20;;;5.90;99.90;;;;;;5030825;28;20231;-56
2023/12/22 00:58:24;;;;;;;0.73;0.30;;;5.90;99.90;;;;;;5031308;28;20273;-56
2023/12/22 01:00:52;;;;;;;0.77;0.30;;;5.90;99.90;;;;;;5021256;28;20224;-56
2023/12/22 01:03:20;;;;;;;3.25;0.60;;;6.10;99.90;;;;;;5025553;28;20198;-57
2023/12/22 01:05:48;;;;;;;1.67;0.20;;;6.20;99.90;;;;;;5022203;28;20282;-56
2023/12/22 01:08:16;;;;;;;1.38;0.40;;;6.30;99.90;;;;;;5031430;28;20293;-57
2023/12/22 01:10:44;;;;;;;2.47;0.52;;;6.30;99.90;;;;;;5031022;28;20262;-57
2023/12/22 01:13:13;;;;;;;0.98;0.38;;;6.30;99.90;;;;;;5031204;28;20211;-56
2023/12/22 01:15:40;;;;;;;2.05;0.40;;;6.40;99.90;;;;;;5031095;28;20223;-56
2023/12/22 01:18:08;;;;;;;2.15;0.35;;;6.40;99.90;;;;;;5031051;28;20237;-57
2023/12/22 01:20:36;;;;;;;0.73;0.40;;;6.40;99.90;;;;;;5031094;28;20903;-57
2023/12/22 01:23:04;;;;;;;1.85;0.30;;;6.50;99.90;;;;;;5031099;28;20283;-57
2023/12/22 01:25:32;;;;;;;0.88;0.40;;;6.50;99.90;;;;;;5030966;28;20269;-55
2023/12/22 01:28:00;;;;;;;1.50;0.30;;;6.50;99.90;;;;;;5031307;28;20225;-56
2023/12/22 01:30:34;;;;;;;1.27;0.30;;;6.60;99.90;;;;;;5030765;28;20234;-56
2023/12/22 01:33:01;;;;;;;1.48;0.38;;;6.60;99.90;;;;;;5031217;28;20203;-55
2023/12/22 01:35:29;;;;;;;2.25;0.50;;;6.60;99.90;;;;;;5030248;28;20230;-57
2023/12/22 01:37:57;;;;;;;0.90;0.40;;;6.60;99.90;;;;;;5030852;28;20710;-55
2023/12/22 01:40:25;;;;;;;3.55;0.40;;;6.60;99.90;;;;;;5029862;28;20226;-55
2023/12/22 01:42:53;;;;;;;0.80;0.30;;;6.50;99.90;;;;;;5031021;28;20202;-57
2023/12/22 01:45:21;;;;;;;1.30;0.52;;;6.50;99.90;;;;;;5030950;28;20249;-57
2023/12/22 01:47:50;;;;;;;0.30;0.30;;;6.50;99.90;;;;;;5029843;28;20211;-56
2023/12/22 01:50:19;;;;;;;2.35;0.30;;;6.50;99.90;;;;;;5024643;28;20607;-57
2023/12/22 01:52:46;;;;;;;1.50;0.30;;;6.50;99.90;;;;;;5030704;28;20218;-56
2023/12/22 01:55:15;;;;;;;1.25;0.28;;;6.40;99.90;;;;;;5022390;28;20715;-55
2023/12/22 01:57:43;;;;;;;3.15;0.40;;;6.40;99.90;;;;;;5030607;28;20315;-56
2023/12/22 02:00:12;;;;;;;1.98;0.22;;;6.40;99.90;;;;;;5030888;28;20317;-56
2023/12/22 02:02:40;;;;;;;2.28;0.40;;;6.40;99.90;;;;;;5023081;28;20234;-56
2023/12/22 02:05:11;;;;;;;0.43;0.22;;;6.30;99.90;;;;;;5022977;28;20199;-55
2023/12/22 02:07:40;;;;;;;1.02;0.40;;;6.30;99.90;;;;;;5030524;28;20610;-57
2023/12/22 02:10:09;;;;;;;2.65;0.22;;;6.30;99.90;;;;;;5022377;28;20223;-55
2023/12/22 02:12:37;;;;;;;1.17;0.40;;;6.30;99.90;;;;;;5030185;28;20234;-57
2023/12/22 02:15:06;;;;;;;1.45;0.30;;;6.30;99.90;;;;;;5030761;28;20268;-56
2023/12/22 02:17:37;;;;;;;1.17;0.30;;;6.30;99.90;;;;;;5032622;28;20632;-57
2023/12/22 02:20:06;;;;;;;1.17;0.30;;;6.30;99.90;;;;;;5029915;28;20227;-56
2023/12/22 02:22:35;;;;;;;1.45;0.35;;;6.30;99.90;;;;;;5031722;28;20290;-57
2023/12/22 02:25:03;;;;;;;1.70;0.40;;;6.20;99.90;;;;;;5033600;28;20540;-56
2023/12/22 02:27:35;;;;;;;0.88;0.20;;;6.30;99.90;;;;;;5033140;28;20249;-56
2023/12/22 02:30:07;;;;;;;0.82;0.30;;;6.30;99.90;;;;;;5033974;28;20258;-56
2023/12/22 02:32:36;;;;;;;1.15;0.30;;;6.20;99.90;;;;;;5025074;28;20261;-59
2023/12/22 02:35:05;;;;;;;1.40;0.40;;;6.30;99.90;;;;;;5026191;28;20778;-59
2023/12/22 02:37:34;;;;;;;0.20;0.20;;;6.30;99.90;;;;;;5022718;28;20207;-56
2023/12/22 02:40:02;;;;;;;2.78;0.38;;;6.30;99.90;;;;;;5014944;28;20731;-58
2023/12/22 02:42:30;;;;;;;1.33;0.30;;;6.20;99.90;;;;;;5033436;28;20293;-55
2023/12/22 02:44:58;;;;;;;0.20;0.20;;;6.20;99.90;;;;;;5033723;28;20206;-58
2023/12/22 02:47:27;;;;;;;0.30;0.30;;;6.30;99.90;;;;;;5034044;28;20205;-57
2023/12/22 02:49:55;;;;;;;1.52;0.25;;;6.20;99.90;;;;;;5026173;28;20210;-56
2023/12/22 02:52:23;;;;;;;0.85;0.30;;;6.30;99.90;;;;;;5033871;28;20261;-56
2023/12/22 02:54:53;;;;;;;0.70;0.30;;;6.20;99.90;;;;;;5033299;28;20226;-56
2023/12/22 02:57:21;;;;;;;0.52;0.30;;;6.20;99.90;;;;;;5033340;28;20230;-56
2023/12/22 02:59:49;;;;;;;2.97;0.35;;;6.20;99.90;;;;;;5033579;28;20786;-57
2023/12/22 03:02:17;;;;;;;0.77;0.52;;;6.20;99.90;;;;;;5033689;28;20233;-57
2023/12/22 03:04:46;;;;;;;2.38;0.45;;;6.20;99.90;;;;;;5025617;28;20223;-57
2023/12/22 03:07:14;;;;;;;4.47;0.70;;;6.30;99.90;;;;;;5033400;28;20206;-55
2023/12/22 03:09:42;;;;;;;3.10;0.30;;;6.30;99.90;;;;;;5033531;28;20225;-56
2023/12/22 03:12:11;;;;;;;0.70;0.30;;;6.30;99.90;;;;;;5033157;28;20286;-57
2023/12/22 03:14:39;;;;;;;0.45;0.30;;;6.30;99.90;;;;;;5033693;28;20234;-55
2023/12/22 03:17:07;;;;;;;2.10;0.70;;;6.30;99.90;;;;;;5033009;28;20223;-55
2023/12/22 03:19:35;;;;;;;1.15;0.40;;;6.30;99.90;;;;;;5025191;28;20242;-56
2023/12/22 03:22:03;;;;;;;3.03;0.30;;;6.30;99.90;;;;;;5032817;28;20231;-55
2023/12/22 03:24:31;;;;;;;2.88;0.68;;;6.30;99.90;;;;;;5038805;22;20281;-57
2023/12/22 03:26:59;;;;;;;0.93;0.40;;;6.30;99.90;;;;;;5029254;28;20203;-61
2023/12/22 03:29:28;;;;;;;1.88;0.40;;;6.30;99.90;;;;;;5020645;28;20637;-59
2023/12/22 03:31:56;;;;;;;5.43;0.60;;;6.30;99.90;;;;;;5024496;28;20204;-60
2023/12/22 03:34:24;;;;;;;4.70;0.40;;;6.30;99.90;;;;;;5026822;28;20233;-57
2023/12/22 03:36:52;;;;;;;1.73;0.22;;;6.30;99.90;;;;;;5032554;28;20236;-60
2023/12/22 03:39:20;;;;;;;0.98;0.35;;;6.20;99.90;;;;;;5020147;28;20369;-61
2023/12/22 03:41:48;;;;;;;1.27;0.20;;;6.20;99.90;;;;;;5028708;28;20668;-60
2023/12/22 03:44:16;;;;;;;2.03;0.40;;;6.10;99.90;;;;;;5032748;28;20261;-59
2023/12/22 03:46:45;;;;;;;3.75;1.13;;;6.10;99.90;;;;;;5032638;28;20599;-59
2023/12/22 03:49:13;;;;;;;5.00;0.77;;;6.20;99.90;;;;;;5032795;28;20659;-61
2023/12/22 03:51:41;;;;;;;2.05;0.75;;;6.30;99.90;;;;;;5032402;28;20208;-56
2023/12/22 03:54:10;;;;;;;6.22;0.90;;;6.40;99.90;;;;;;5032871;28;20310;-59
2023/12/22 03:56:38;;;;;;;3.83;0.80;;;6.50;99.90;;;;;;5032535;28;20231;-60
2023/12/22 03:59:05;;;;;;;3.25;0.70;;;6.50;99.90;;;;;;5021446;28;20824;-58
2023/12/22 04:01:33;;;;;;;7.90;1.15;;;6.50;99.90;;;;;;5019105;28;20265;-57
2023/12/22 04:04:02;;;;;;;5.65;1.05;;;6.50;99.90;;;;;;5032093;28;20258;-57
2023/12/22 04:06:30;;;;;;;2.30;0.82;;;6.60;99.90;;;;;;5032401;28;20234;-59
2023/12/22 04:08:58;;;;;;;1.33;0.52;;;6.60;99.90;;;;;;5031939;28;20265;-57
2023/12/22 04:11:26;;;;;;;6.22;0.70;;;6.60;99.90;;;;;;5022435;28;20261;-60
2023/12/22 04:13:54;;;;;;;5.50;1.15;;;6.70;99.90;;;;;;5031895;28;20807;-59
2023/12/22 04:16:22;;;;;;;4.20;0.88;;;6.70;99.90;;;;;;5032172;28;20222;-57
2023/12/22 04:18:50;;;;;;;7.35;1.00;;;6.70;99.90;;;;;;5021948;28;20215;-58
2023/12/22 04:21:19;;;;;;;4.55;1.10;;;6.70;99.90;;;;;;5015930;28;20940;-60
2023/12/22 04:23:47;;;;;;;7.05;0.82;;;6.70;99.90;;;;;;5031913;28;20237;-54
2023/12/22 04:26:15;;;;;;;5.38;1.02;;;6.70;99.90;;;;;;5027088;28;20256;-60
2023/12/22 04:28:43;;;;;;;2.38;0.55;;;6.70;99.90;;;;;;5030678;28;20379;-57
2023/12/22 04:31:11;;;;;;;5.40;1.02;;;6.70;99.90;;;;;;5031442;28;20248;-60
2023/12/22 04:33:38;;;;;;;4.93;0.93;;;6.70;99.90;;;;;;5032070;28;20226;-56
2023/12/22 04:36:07;;;;;;;8.90;1.13;;;6.80;99.90;;;;;;5031895;28;20238;-55
2023/12/22 04:38:36;;;;;;;5.03;0.82;;;6.80;99.90;;;;;;5031723;28;20647;-57
2023/12/22 04:41:04;;;;;;;3.97;0.90;;;6.80;99.90;;;;;;5031961;28;20301;-59
2023/12/22 04:43:32;;;;;;;5.93;1.00;;;6.80;99.90;;;;;;5031384;28;20226;-60
2023/12/22 04:46:00;;;;;;;8.18;1.38;;;6.80;99.90;;;;;;5031626;28;20209;-59
2023/12/22 04:48:28;;;;;;;4.32;0.60;;;6.80;99.90;;;;;;5031535;28;20226;-54
2023/12/22 04:50:55;;;;;;;5.40;0.90;;;6.80;99.90;;;;;;5031942;28;20638;-61
2023/12/22 04:53:23;;;;;;;4.13;1.13;;;6.80;99.90;;;;;;5031507;28;20261;-59
2023/12/22 04:55:53;;;;;;;8.55;1.38;;;6.90;99.90;;;;;;5031436;28;20207;-59
2023/12/22 04:58:21;;;;;;;4.97;1.10;;;6.90;99.90;;;;;;5031247;28;20202;-61
2023/12/22 05:00:49;;;;;;;4.43;1.20;;;6.90;99.90;;;;;;5031585;28;20213;-58
2023/12/22 05:03:17;;;;;;;2.35;0.70;;;6.90;99.90;;;;;;5021794;28;20227;-60
2023/12/22 05:05:45;;;;;;;5.32;1.13;;;6.90;99.90;;;;;;5025602;28;20209;-59
2023/12/22 05:08:13;;;;;;;5.05;1.05;;;7.00;99.90;;;;;;5030571;28;20206;-55
2023/12/22 05:10:41;;;;;;;5.00;1.35;;;7.00;99.90;;;;;;5031431;28;20214;-56
2023/12/22 05:13:10;;;;;;;4.20;0.70;;;7.00;99.90;;;;;;5030941;28;20234;-55
2023/12/22 05:15:38;;;;;;;4.70;0.73;;;7.00;99.90;;;;;;5031621;28;20202;-55
2023/12/22 05:18:06;;;;;;;4.20;0.90;;;7.00;99.90;;;;;;5031047;28;20312;-60
2023/12/22 05:20:34;;;;;;;10.40;1.02;;;7.10;99.90;;;;;;5031186;28;20207;-61
2023/12/22 05:23:02;;;;;;;4.25;1.27;;;7.10;99.90;;;;;;5030320;28;20227;-61
2023/12/22 05:25:30;;;;;;;4.82;0.45;;;7.00;99.90;;;;;;5031027;28;20297;-60
2023/12/22 05:27:58;;;;;;;5.13;0.88;;;7.00;99.90;;;;;;5030634;28;20199;-55
2023/12/22 05:30:27;;;;;;;5.53;0.95;;;7.00;99.90;;;;;;5027023;28;20230;-58
2023/12/22 05:32:55;;;;;;;9.15;1.25;;;7.00;99.90;;;;;;5021362;28;20233;-59
2023/12/22 05:35:23;;;;;;;6.50;0.90;;;7.00;99.90;;;;;;5028430;28;20687;-58
2023/12/22 05:37:51;;;;;;;6.05;0.88;;;6.90;99.90;;;;;;5030722;28;20226;-58
2023/12/22 05:40:19;;;;;;;3.65;1.00;;;6.90;99.90;;;;;;5032733;28;20225;-60
2023/12/22 05:42:47;;;;;;;3.55;0.98;;;6.80;99.90;;;;;;5030670;28;20205;-60
2023/12/22 05:45:15;;;;;;;3.40;1.05;;;6.80;99.90;;;;;;5030742;28;20206;-61
2023/12/22 05:47:45;;;;;;;3.55;0.77;;;6.80;99.90;;;;;;5030822;28;20664;-60
2023/12/22 05:50:13;;;;;;;3.10;0.63;;;6.80;99.90;;;;;;5030871;28;20676;-61
2023/12/22 05:52:41;;;;;;;4.93;0.63;;;6.80;99.90;;;;;;5023782;28;20225;-60
2023/12/22 05:55:09;;;;;;;4.97;0.95;;;6.80;99.90;;;;;;5030318;28;20282;-60
2023/12/22 05:57:37;;;;;;;3.25;0.50;;;6.80;99.90;;;;;;5028335;28;20365;-60
2023/12/22 06:00:07;;;;;;;4.30;0.70;;;6.90;99.90;;;;;;5034892;28;20206;-55
2023/12/22 06:02:35;;;;;;;2.85;0.52;;;6.90;99.90;;;;;;5034775;28;20245;-55
2023/12/22 06:05:05;;;;;;;2.92;0.70;;;6.90;99.90;;;;;;5034298;28;20276;-60
2023/12/22 06:07:33;;;;;;;4.28;0.90;;;6.90;99.90;;;;;;5034477;28;20210;-60
2023/12/22 06:10:01;;;;;;;1.95;0.40;;;6.90;99.90;;;;;;5034578;28;20265;-59
2023/12/22 06:12:28;;;;;;;2.50;0.52;;;6.90;99.90;;;;;;5034638;28;20241;-54
2023/12/22 06:14:56;;;;;;;2.05;0.50;;;6.90;99.90;;;;;;5034096;28;20269;-55
2023/12/22 06:17:24;;;;;;;9.05;0.75;;;6.90;99.90;;;;;;5034282;28;20317;-55
2023/12/22 06:19:52;;;;;;;1.98;0.75;;;6.90;99.90;;;;;;5034644;28;20214;-60
2023/12/22 06:22:22;;;;;;;1.73;0.50;;;6.90;99.90;;;;;;5034575;28;20209;-58
2023/12/22 06:24:51;;;;;;;3.50;0.60;;;6.80;99.90;;;;;;5033961;28;20664;-59
2023/12/22 06:27:18;;;;;;;2.33;0.57;;;6.70;99.90;;;;;;5033593;28;20226;-55
2023/12/22 06:29:46;;;;;;;2.92;0.50;;;6.70;99.90;;;;;;5034058;28;20206;-59
2023/12/22 06:32:14;;;;;;;6.05;1.15;;;6.70;99.90;;;;;;5034118;28;20720;-54
2023/12/22 06:34:42;;;;;;;4.53;1.13;;;6.60;99.90;;;;;;5034171;28;20318;-58
2023/12/22 06:37:10;;;;;;;4.95;1.00;;;6.60;99.90;;;;;;5033589;28;20223;-55
2023/12/22 06:39:40;;;;;;;3.53;0.73;;;6.70;99.90;;;;;;5022853;28;20242;-54
2023/12/22 06:42:10;;;;;;;4.20;1.25;;;6.70;99.90;;;;;;5028539;28;20199;-60
2023/12/22 06:44:38;;;;;;;4.35;0.93;;;6.70;99.90;;;;;;5028906;28;20231;-58
2023/12/22 06:47:06;;;;;;;8.20;1.15;;;6.70;99.90;;;;;;5033980;28;20233;-60
2023/12/22 06:49:34;;;;;;;6.47;0.82;;;6.80;99.90;;;;;;5033784;28;20635;-56
2023/12/22 06:52:02;;;;;;;7.30;1.40;;;6.80;99.90;;;;;;5017112;28;20253;-55
2023/12/22 06:54:30;;;;;;;3.78;0.80;;;6.80;99.90;;;;;;5026014;28;20246;-59
2023/12/22 06:57:00;;;;;;;5.57;1.15;;;6.80;99.90;;;;;;5029397;28;20211;-58
2023/12/22 06:59:28;;;;;;;5.00;0.93;;;6.80;99.90;;;;;;5033217;28;20295;-58
2023/12/22 07:01:57;;;;;;;3.13;0.70;;;6.70;99.90;;;;;;5022939;28;20592;-57
2023/12/22 07:04:41;;;;;;;2.95;0.98;;;6.80;99.90;;;;;;5029816;28;20299;-58
2023/12/22 07:07:09;;;;;;;6.15;1.23;;;6.70;99.90;;;;;;5026076;28;20217;-59
2023/12/22 07:09:37;;;;;;;4.93;1.30;;;6.70;99.90;;;;;;5028573;28;20290;-57
2023/12/22 07:12:08;;;;;;;10.27;1.45;;;6.70;99.90;;;;;;5032346;28;20238;-59
2023/12/22 07:14:36;;;;;;;8.88;1.40;;;6.80;99.90;;;;;;5024337;28;20297;-58
2023/12/22 07:17:04;;;;;;;3.60;1.38;;;6.80;99.90;;;;;;5032740;28;20238;-59
2023/12/22 07:19:32;;;;;;;10.18;1.65;;;6.80;99.90;;;;;;5032960;28;20286;-58
2023/12/22 07:22:02;;;;;;;5.15;1.48;;;6.80;99.90;;;;;;5033308;28;20206;-60
2023/12/22 07:24:29;;;;;;;7.78;1.08;;;6.90;99.90;;;;;;5032605;28;20312;-59
2023/12/22 07:26:57;;;;;;;6.80;1.10;;;6.90;99.90;;;;;;5022996;28;20781;-58
2023/12/22 07:29:26;;;;;;;4.10;1.40;;;7.00;99.90;;;;;;5030947;28;20246;-59
2023/12/22 07:31:54;;;;;;;8.80;1.58;;;7.00;99.90;;;;;;5033059;28;20304;-60
2023/12/22 07:34:22;;;;;;;8.70;1.40;;;7.00;99.90;;;;;;5023544;28;20309;-57
2023/12/22 07:36:52;;;;;;;7.25;1.15;;;7.10;99.90;;;;;;5023535;28;20210;-59
2023/12/22 07:39:33;;;;;;;17.83;2.38;;;7.10;99.90;;;;;;5032045;28;20603;-58
2023/12/22 07:42:02;;;;;;;5.05;1.13;;;7.10;99.90;;;;;;5030352;28;20202;-59
2023/12/22 07:44:32;;;;;;;9.30;1.70;;;7.10;99.90;;;;;;5022387;28;20392;-59
2023/12/22 07:47:01;;;;;;;3.90;1.20;;;7.10;99.90;;;;;;5024452;28;20290;-58
2023/12/22 07:49:30;;;;;;;9.88;1.88;;;7.10;99.90;;;;;;5016722;28;20203;-60
2023/12/22 07:52:00;;;;;;;10.45;1.58;;;7.10;99.90;;;;;;5021454;28;20204;-58
2023/12/22 07:54:30;;;;;;;5.13;1.20;;;7.20;99.90;;;;;;5029678;28;20647;-56
2023/12/22 07:56:58;;;;;;;8.50;1.38;;;7.20;99.90;;;;;;5032489;28;20591;-58
2023/12/22 07:59:26;;;;;;;8.45;1.65;;;7.20;99.90;;;;;;5030396;28;20219;-60
2023/12/22 08:02:00;;;;;;;5.43;1.05;;;7.40;99.90;;;;;;5024679;28;20211;-59
2023/12/22 08:04:28;;;;;;;4.85;1.45;;;7.50;99.90;;;;;;5031342;28;20272;-58
2023/12/22 08:06:56;;;;;;;6.55;1.58;;;7.60;99.90;;;;;;5030255;28;20246;-59
2023/12/22 08:09:25;;;;;;;2.72;0.90;;;7.60;99.90;;;;;;5032276;28;20206;-58
2023/12/22 08:11:56;;;;;;;9.10;1.10;;;7.70;99.90;;;;;;5032645;28;20234;-59
2023/12/22 08:14:24;;;;;;;4.70;1.13;;;7.80;99.90;;;;;;5031824;28;20292;-59
2023/12/22 08:16:52;;;;;;;5.93;1.20;;;7.90;99.90;;;;;;5032348;28;20294;-59
2023/12/22 08:19:21;;;;;;;3.72;1.58;;;7.90;99.90;;;;;;5029836;28;20229;-60
2023/12/22 08:21:53;;;;;;;9.13;1.42;;;8.00;99.90;;;;;;5027810;28;20213;-59
2023/12/22 08:24:21;;;;;;;7.65;1.58;;;8.00;99.90;;;;;;5031786;28;20234;-57
2023/12/22 08:26:50;;;;;;;7.10;1.15;;;8.00;99.90;;;;;;5032135;28;20225;-58
2023/12/22 08:29:19;;;;;;;5.90;0.77;;;8.00;99.90;;;;;;5031568;28;20633;-59
2023/12/22 08:31:47;;;;;;;3.53;1.10;;;7.90;99.90;;;;;;5028692;28;20301;-59
2023/12/22 08:34:16;;;;;;;3.03;0.82;;;7.90;99.90;;;;;;5024450;28;20760;-56
2023/12/22 08:36:45;;;;;;;3.20;0.90;;;7.70;99.90;;;;;;5031376;28;20568;-59
2023/12/22 08:39:13;;;;;;;4.95;1.42;;;7.70;99.90;;;;;;5023730;28;20245;-58
2023/12/22 08:41:42;;;;;;;5.32;1.52;;;7.60;99.90;;;;;;5029419;28;20214;-57
2023/12/22 08:44:10;;;;;;;7.05;1.80;;;7.60;99.90;;;;;;5031552;28;20230;-57
2023/12/22 08:46:38;;;;;;;4.90;1.73;;;7.50;99.90;;;;;;5024787;28;20214;-57
2023/12/22 08:49:06;;;;;;;5.60;3.08;;;7.50;99.90;;;;;;5031553;28;20238;-60
2023/12/22 08:51:34;;;;;;;4.45;2.55;;;7.50;99.90;;;;;;5031864;28;20202;-57
2023/12/22 08:54:04;;;;;;;6.28;1.30;;;7.40;99.90;;;;;;5023852;28;20234;-59
2023/12/22 08:56:32;;;;;;;8.57;1.30;;;7.40;99.90;;;;;;5023228;28;20256;-59
2023/12/22 08:58:59;;;;;;;6.43;1.70;;;7.40;99.90;;;;;;5031411;28;20678;-59
2023/12/22 09:01:27;;;;;;;6.18;1.30;;;7.40;99.90;;;;;;5031764;28;20260;-59
2023/12/22 09:03:55;;;;;;;7.75;1.45;;;7.40;99.90;;;;;;5031929;28;20313;-59
2023/12/22 09:06:24;;;;;;;5.03;1.50;;;7.40;99.90;;;;;;5031540;28;20320;-59
2023/12/22 09:08:52;;;;;;;6.35;1.83;;;7.40;99.90;;;;;;5031629;28;20248;-59
2023/12/22 09:11:23;;;;;;;7.15;1.83;;;7.30;99.90;;;;;;5031581;28;20206;-59
2023/12/22 09:13:51;;;;;;;5.78;2.30;;;7.30;99.90;;;;;;5031360;28;20235;-59
2023/12/22 09:16:21;;;;;;;9.60;3.88;;;7.30;99.90;;;;;;5031087;28;20244;-60
2023/12/22 09:18:50;;;;;;;6.55;2.58;;;7.20;99.90;;;;;;5031146;28;20226;-57
2023/12/22 09:21:18;;;;;;;8.77;3.25;;;7.20;99.90;;;;;;5031589;28;20202;-59
2023/12/22 09:23:46;;;;;;;8.48;2.33;;;7.20;99.90;;;;;;5031124;28;20735;-57
2023/12/22 09:26:14;;;;;;;8.68;2.47;;;7.30;99.90;;;;;;5029822;28;20651;-57
2023/12/22 09:28:44;;;;;;;7.38;1.88;;;7.30;99.90;;;;;;5024146;28;20687;-58
2023/12/22 09:31:12;;;;;;;6.32;2.20;;;7.30;99.90;;;;;;5021839;28;20628;-59
2023/12/22 09:33:41;;;;;;;10.57;2.05;;;7.30;99.90;;;;;;5025114;28;20604;-57
2023/12/22 09:36:09;;;;;;;7.38;1.55;;;7.30;99.90;;;;;;5025620;28;20249;-56
2023/12/22 09:38:37;;;;;;;8.15;1.13;;;7.30;99.90;;;;;;5024383;28;20310;-57
2023/12/22 09:41:05;;;;;;;8.07;1.10;;;7.30;99.90;;;;;;5031376;28;20241;-57
2023/12/22 09:43:34;;;;;;;5.85;1.38;;;7.40;99.90;;;;;;5019643;28;20230;-58
2023/12/22 09:46:03;;;;;;;6.57;1.25;;;7.30;99.90;;;;;;5026941;28;20217;-57
2023/12/22 09:48:31;;;;;;;3.92;1.35;;;7.30;99.90;;;;;;5028002;28;20211;-57
2023/12/22 09:50:59;;;;;;;7.88;1.20;;;7.30;99.90;;;;;;5021825;28;20557;-57
2023/12/22 09:53:27;;;;;;;3.60;1.50;;;7.40;99.90;;;;;;5023490;28;20607;-56
2023/12/22 09:55:55;;;;;;;7.88;1.25;;;7.40;99.90;;;;;;5027208;28;20210;-56
2023/12/22 09:58:23;;;;;;;4.78;1.20;;;7.40;99.90;;;;;;5029564;28;20267;-58
2023/12/22 10:00:51;;;;;;;3.55;1.20;;;7.40;99.90;;;;;;5031112;28;20207;-57
2023/12/22 10:03:20;;;;;;;8.13;1.38;;;7.50;99.90;;;;;;5024375;28;20230;-58
2023/12/22 10:05:48;;;;;;;10.27;1.48;;;7.50;99.90;;;;;;5024271;28;20684;-58
2023/12/22 10:08:16;;;;;;;10.50;2.03;;;7.50;99.90;;;;;;5018188;28;20250;-58
2023/12/22 10:10:44;;;;;;;11.60;1.65;;;7.60;99.90;;;;;;5027242;28;20203;-59
2023/12/22 10:13:12;;;;;;;11.45;2.30;;;7.60;99.90;;;;;;5023875;28;20590;-58
2023/12/22 10:15:41;;;;;;;15.38;2.53;;;7.60;99.90;;;;;;5022465;28;20238;-57
2023/12/22 10:18:09;;;;;;;17.67;2.95;;;7.60;99.90;;;;;;5029925;28;20301;-58
2023/12/22 10:20:38;;;;;;;18.35;3.78;;;7.70;99.90;;;;;;5014143;28;20226;-56
2023/12/22 10:23:06;;;;;;;18.70;3.65;;;7.80;99.90;;;;;;5016990;28;20259;-57
2023/12/22 10:25:35;;;;;;;17.30;3.35;;;7.90;99.90;;;;;;5021795;28;20214;-58
2023/12/22 10:28:03;;;;;;;17.60;3.28;;;8.00;99.90;;;;;;5030293;28;20235;-59
2023/12/22 10:30:32;;;;;;;13.55;3.17;;;8.00;99.90;;;;;;5024232;28;20242;-58
2023/12/22 10:32:59;;;;;;;13.70;2.50;;;8.10;99.90;;;;;;5024052;28;20234;-59
2023/12/22 10:35:27;;;;;;;18.48;2.92;;;8.20;99.90;;;;;;5029505;28;20238;-58
2023/12/22 10:37:57;;;;;;;17.23;2.90;;;8.20;99.90;;;;;;5030538;28;20293;-57
2023/12/22 10:40:29;;;;;;;15.27;3.28;;;8.20;99.90;;;;;;5025201;28;20234;-58
2023/12/22 10:42:56;;;;;;;15.45;2.92;;;8.30;99.90;;;;;;5034928;28;20202;-57
2023/12/22 10:45:24;;;;;;;16.55;2.67;;;8.30;99.90;;;;;;5033979;28;20210;-57
2023/12/22 10:47:53;;;;;;;24.17;3.75;;;8.30;99.90;;;;;;5026224;28;20207;-58
2023/12/22 10:50:21;;;;;;;16.45;3.38;;;8.30;99.90;;;;;;5030311;28;20214;-58
2023/12/22 10:52:52;;;;;;;12.82;2.83;;;8.30;99.90;;;;;;5034512;28;20601;-58
2023/12/22 10:55:22;;;;;;;15.63;3.13;;;8.40;99.90;;;;;;5033674;28;20582;-57
2023/12/22 10:57:49;;;;;;;19.95;3.10;;;8.40;99.90;;;;;;5034567;28;20207;-58
2023/12/22 11:00:18;;;;;;;20.60;3.08;;;8.50;99.90;;;;;;5025218;28;20223;-57
2023/12/22 11:02:48;;;;;;;14.68;2.55;;;8.50;99.90;;;;;;5027414;28;20298;-58
2023/12/22 11:05:17;;;;;;;14.10;3.08;;;8.50;99.90;;;;;;5034167;28;20210;-58
2023/12/22 11:07:50;;;;;;;21.45;2.95;;;8.50;99.90;;;;;;5034363;28;20206;-58
2023/12/22 11:10:21;;;;;;;13.25;2.45;;;8.50;99.90;;;;;;5033570;28;20195;-58
2023/12/22 11:12:49;;;;;;;14.93;3.08;;;8.50;99.90;;;;;;5019945;28;20203;-58
2023/12/22 11:15:18;;;;;;;12.98;2.75;;;8.60;99.90;;;;;;5033670;28;20214;-59
2023/12/22 11:17:45;;;;;;;18.45;3.22;;;8.60;99.90;;;;;;5033314;28;20285;-56
2023/12/22 11:20:14;;;;;;;15.65;2.63;;;8.60;99.90;;;;;;5034481;28;20232;-58
2023/12/22 11:22:42;;;;;;;14.88;2.45;;;8.60;99.90;;;;;;5035607;28;20225;-59
2023/12/22 11:25:10;;;;;;;13.23;2.45;;;8.70;99.90;;;;;;5035452;28;20210;-56
2023/12/22 11:27:44;;;;;;;14.88;2.70;;;8.70;99.90;;;;;;5034425;28;20203;-59
2023/12/22 11:30:13;;;;;;;11.90;2.28;;;8.70;99.90;;;;;;5022504;28;20246;-57
2023/12/22 11:32:41;;;;;;;14.65;3.10;;;8.70;99.90;;;;;;5025455;28;20206;-56
2023/12/22 11:35:09;;;;;;;12.23;2.08;;;8.70;99.90;;;;;;5032564;28;20203;-57
2023/12/22 11:37:37;;;;;;;14.52;2.42;;;8.70;99.90;;;;;;5024709;28;20253;-58
2023/12/22 11:40:06;;;;;;;10.63;2.25;;;8.80;99.90;;;;;;5030416;28;20223;-57
2023/12/22 11:42:36;;;;;;;9.98;1.88;;;8.80;99.90;;;;;;5029244;28;20241;-56
2023/12/22 11:45:06;;;;;;;9.18;1.88;;;8.90;99.90;;;;;;5014313;28;20227;-56
2023/12/22 11:47:34;;;;;;;11.02;1.80;;;8.80;99.90;;;;;;5013687;28;20297;-56
2023/12/22 11:50:02;;;;;;;10.77;2.17;;;8.80;99.90;;;;;;5026629;28;20198;-56
2023/12/22 11:52:31;;;;;;;9.95;1.70;;;8.80;99.90;;;;;;5032686;28;20676;-55
2023/12/22 11:54:59;;;;;;;12.35;1.88;;;8.80;99.90;;;;;;5032431;28;20222;-56
2023/12/22 11:57:31;;;;;;;8.50;2.10;;;8.80;99.90;;;;;;5016521;28;20207;-57
2023/12/22 11:59:59;;;;;;;5.68;1.42;;;8.80;99.90;;;;;;5024212;28;20747;-55
2023/12/22 12:02:29;;;;;;;4.10;1.60;;;8.80;99.90;;;;;;5030790;28;20199;-57
2023/12/22 12:04:59;;;;;;;7.38;1.40;;;8.70;99.90;;;;;;5024297;28;20230;-55
2023/12/22 12:07:45;;;;;;;13.25;1.65;;;8.70;99.90;;;;;;5024229;28;20203;-57
2023/12/22 12:10:14;;;;;;;11.32;1.55;;;8.60;99.90;;;;;;5023832;28;20199;-57
2023/12/22 12:12:42;;;;;;;8.95;1.60;;;8.60;99.90;;;;;;5027139;28;20229;-56
2023/12/22 12:15:11;;;;;;;9.10;1.45;;;8.70;99.90;;;;;;5028480;28;20619;-55
2023/12/22 12:17:44;;;;;;;6.88;1.60;;;8.60;99.90;;;;;;5027040;28;20202;-57
2023/12/22 12:20:12;;;;;;;7.82;1.98;;;8.60;99.90;;;;;;5024497;28;20216;-57
2023/12/22 12:22:40;;;;;;;7.85;2.08;;;8.60;99.90;;;;;;5028355;28;20620;-57
2023/12/22 12:25:10;;;;;;;6.07;1.40;;;8.70;99.90;;;;;;5022601;28;20210;-56
2023/12/22 12:27:55;;;;;;;4.88;1.38;;;8.60;99.90;;;;;;5020592;28;20253;-56
2023/12/22 12:30:23;;;;;;;5.75;1.50;;;8.70;99.90;;;;;;5016603;28;20234;-57
2023/12/22 12:32:53;;;;;;;7.63;1.33;;;8.70;99.90;;;;;;5032037;28;20203;-56
2023/12/22 12:35:23;;;;;;;8.25;1.77;;;8.70;99.90;;;;;;5015315;28;20675;-55
2023/12/22 12:37:52;;;;;;;3.65;1.30;;;8.70;99.90;;;;;;5027082;28;20266;-57
2023/12/22 12:40:20;;;;;;;6.88;1.15;;;8.70;99.90;;;;;;5027844;28;20225;-57
2023/12/22 12:42:48;;;;;;;5.10;1.45;;;8.70;99.90;;;;;;5031043;28;20774;-59
2023/12/22 12:45:16;;;;;;;5.43;1.25;;;8.80;99.90;;;;;;5022118;28;20213;-56
2023/12/22 12:47:44;;;;;;;4.22;0.90;;;8.80;99.90;;;;;;5022377;28;20214;-57
2023/12/22 12:50:13;;;;;;;6.88;1.23;;;8.90;99.90;;;;;;5029848;28;20203;-58
2023/12/22 12:52:41;;;;;;;4.97;1.02;;;8.90;99.90;;;;;;5025999;28;20584;-57
2023/12/22 12:55:09;;;;;;;8.40;1.10;;;9.00;99.90;;;;;;5023292;28;20241;-56
2023/12/22 12:57:37;;;;;;;5.40;1.17;;;9.00;99.90;;;;;;5028574;28;20290;-56
2023/12/22 13:00:06;;;;;;;3.53;0.68;;;9.10;99.90;;;;;;5029801;28;20203;-57
2023/12/22 13:02:34;;;;;;;4.22;0.98;;;9.10;99.90;;;;;;5026265;28;20268;-57